createdAt,value
2022-11-05T00:00:01.851Z,2.73
2022-11-05T00:02:25.151Z,3.40
2022-11-05T00:04:45.713Z,3.37
2022-11-05T00:07:06.326Z,3.30
2022-11-05T00:09:36.929Z,3.80
2022-11-05T00:11:57.294Z,3.83
2022-11-05T00:14:17.732Z,4.10
2022-11-05T00:16:38.808Z,4.13
2022-11-05T00:18:40.786Z,4.47
2022-11-05T00:20:42.597Z,4.87
2022-11-05T00:23:03.177Z,5.00
2022-11-05T00:25:14.257Z,4.93
2022-11-05T00:27:16.057Z,4.60
2022-11-05T00:29:17.936Z,4.47
2022-11-05T00:31:20.513Z,5.17
2022-11-05T00:33:22.341Z,4.90
2022-11-05T00:35:24.564Z,5.37
2022-11-05T00:37:29.518Z,4.83
2022-11-05T00:39:31.424Z,5.67
2022-11-05T00:41:33.252Z,5.47
2022-11-05T00:43:54.804Z,5.70
2022-11-05T00:45:57.481Z,5.30
2022-11-05T00:48:17.713Z,5.13
2022-11-05T00:50:22.126Z,5.50
2022-11-05T00:52:42.604Z,5.13
2022-11-05T00:54:45.754Z,5.70
2022-11-05T00:56:47.597Z,5.90
2022-11-05T00:58:49.391Z,5.00
2022-11-05T01:00:54.075Z,6.10
2022-11-05T01:03:05.418Z,5.50
2022-11-05T01:05:07.481Z,6.40
2022-11-05T01:07:09.819Z,5.93
2022-11-05T01:09:11.742Z,5.40
2022-11-05T01:11:40.792Z,5.60
2022-11-05T01:13:42.708Z,6.43
2022-11-05T01:15:46.538Z,7.00
2022-11-05T01:17:48.511Z,6.73
2022-11-05T01:19:50.321Z,6.67
2022-11-05T01:21:52.038Z,7.20
2022-11-05T01:23:53.806Z,6.97
2022-11-05T01:25:58.653Z,7.30
2022-11-05T01:28:01.940Z,7.03
2022-11-05T01:30:05.902Z,7.73
2022-11-05T01:32:07.659Z,6.60
2022-11-05T01:34:09.393Z,6.73
2022-11-05T01:36:13.409Z,7.10
2022-11-05T01:38:15.164Z,6.93
2022-11-05T01:40:20.972Z,7.37
2022-11-05T01:42:25.686Z,6.97
2022-11-05T01:44:54.403Z,7.43
2022-11-05T01:46:56.302Z,7.20
2022-11-05T01:49:11.740Z,7.20
2022-11-05T01:51:17.275Z,7.70
2022-11-05T01:53:25.322Z,7.43
2022-11-05T01:55:31.611Z,8.20
2022-11-05T01:57:33.454Z,8.50
2022-11-05T01:59:48.135Z,8.20
2022-11-05T02:01:51.441Z,8.23
2022-11-05T02:03:56.522Z,8.47
2022-11-05T02:06:00.461Z,8.60
2022-11-05T02:08:05.000Z,9.60
2022-11-05T02:10:09.930Z,9.53
2022-11-05T02:12:14.761Z,9.80
2022-11-05T02:14:18.228Z,10.43
2022-11-05T02:16:41.181Z,11.07
2022-11-05T02:19:02.065Z,10.53
2022-11-05T02:21:09.854Z,10.60
2022-11-05T02:23:24.531Z,9.70
2022-11-05T02:25:47.990Z,10.03
2022-11-05T02:28:24.380Z,9.97
2022-11-05T02:30:36.216Z,9.80
2022-11-05T02:32:54.003Z,9.10
2022-11-05T02:35:26.623Z,9.60
2022-11-05T02:37:49.658Z,10.10
2022-11-05T02:40:07.716Z,9.27
2022-11-05T02:42:23.583Z,9.87
2022-11-05T02:44:53.312Z,10.00
2022-11-05T02:47:14.184Z,10.30
2022-11-05T02:49:38.379Z,9.33
2022-11-05T02:52:05.106Z,9.07
2022-11-05T02:54:20.545Z,8.80
2022-11-05T02:56:30.408Z,9.30
2022-11-05T02:58:34.032Z,9.00
2022-11-05T03:00:40.604Z,9.30
2022-11-05T03:02:42.576Z,9.17
2022-11-05T03:04:44.439Z,9.60
2022-11-05T03:07:04.793Z,9.07
2022-11-05T03:09:24.883Z,8.40
2022-11-05T03:11:30.944Z,8.20
2022-11-05T03:14:15.748Z,8.10
2022-11-05T03:16:32.373Z,8.47
2022-11-05T03:18:47.898Z,8.20
2022-11-05T03:21:07.804Z,8.53
2022-11-05T03:23:27.589Z,7.70
2022-11-05T03:25:32.235Z,7.90
2022-11-05T03:27:41.549Z,8.60
2022-11-05T03:29:49.705Z,7.97
2022-11-05T03:31:54.962Z,8.30
2022-11-05T03:33:59.384Z,8.00
2022-11-05T03:36:06.446Z,8.10
2022-11-05T03:38:21.563Z,8.13
2022-11-05T03:40:25.021Z,8.70
2022-11-05T03:42:32.276Z,8.60
2022-11-05T03:44:38.774Z,7.97
2022-11-05T03:46:49.400Z,9.10
2022-11-05T03:48:55.317Z,8.97
2022-11-05T03:51:02.620Z,8.90
2022-11-05T03:53:39.307Z,9.27
2022-11-05T03:55:57.119Z,9.87
2022-11-05T03:57:59.790Z,8.50
2022-11-05T04:00:01.848Z,9.03
2022-11-05T04:02:15.287Z,9.10
2022-11-05T04:04:17.504Z,9.47
2022-11-05T04:06:38.078Z,9.23
2022-11-05T04:08:58.975Z,9.20
2022-11-05T04:11:19.455Z,9.37
2022-11-05T04:13:27.816Z,8.97
2022-11-05T04:15:30.167Z,8.83
2022-11-05T04:17:31.984Z,8.80
2022-11-05T04:19:53.634Z,8.67
2022-11-05T04:22:14.304Z,9.07
2022-11-05T04:24:16.005Z,8.23
2022-11-05T04:26:23.138Z,9.33
2022-11-05T04:28:44.830Z,8.77
2022-11-05T04:30:46.767Z,8.47
2022-11-05T04:33:04.513Z,8.67
2022-11-05T04:35:06.487Z,8.47
2022-11-05T04:37:08.267Z,8.60
2022-11-05T04:39:10.065Z,7.83
2022-11-05T04:41:32.872Z,8.47
2022-11-05T04:43:34.577Z,7.53
2022-11-05T04:45:36.983Z,8.43
2022-11-05T04:47:38.907Z,7.90
2022-11-05T04:49:40.732Z,8.00
2022-11-05T04:51:42.820Z,8.37
2022-11-05T04:53:44.581Z,8.03
2022-11-05T04:55:47.808Z,8.33
2022-11-05T04:57:53.714Z,7.83
2022-11-05T04:59:55.568Z,8.10
2022-11-05T05:01:57.982Z,8.97
2022-11-05T05:04:00.763Z,8.60
2022-11-05T05:06:04.167Z,8.80
2022-11-05T05:08:06.657Z,8.73
2022-11-05T05:10:09.815Z,8.47
2022-11-05T05:12:13.584Z,8.83
2022-11-05T05:14:15.408Z,8.63
2022-11-05T05:16:24.404Z,8.47
2022-11-05T05:18:26.855Z,8.17
2022-11-05T05:20:47.328Z,8.57
2022-11-05T05:22:55.207Z,8.30
2022-11-05T05:24:57.124Z,7.73
2022-11-05T05:26:58.824Z,8.57
2022-11-05T05:29:00.599Z,7.87
2022-11-05T05:31:02.423Z,8.50
2022-11-05T05:33:04.727Z,8.30
2022-11-05T05:35:06.749Z,8.20
2022-11-05T05:37:08.701Z,7.83
2022-11-05T05:39:11.086Z,8.47
2022-11-05T05:41:13.205Z,8.07
2022-11-05T05:43:15.057Z,8.30
2022-11-05T05:45:20.609Z,8.30
2022-11-05T05:47:22.383Z,8.17
2022-11-05T05:49:24.218Z,8.40
2022-11-05T05:51:26.329Z,7.93
2022-11-05T05:53:29.139Z,8.77
2022-11-05T05:55:30.906Z,8.90
2022-11-05T05:57:33.566Z,9.40
2022-11-05T05:59:35.381Z,8.97
2022-11-05T06:01:37.479Z,8.70
2022-11-05T06:03:39.619Z,9.53
2022-11-05T06:05:41.516Z,8.70
2022-11-05T06:07:43.523Z,8.43
2022-11-05T06:09:45.293Z,8.13
2022-11-05T06:11:47.096Z,8.23
2022-11-05T06:13:49.039Z,8.57
2022-11-05T06:15:50.912Z,8.00
2022-11-05T06:17:52.735Z,8.07
2022-11-05T06:19:54.873Z,8.47
2022-11-05T06:21:56.791Z,8.33
2022-11-05T06:24:00.794Z,9.57
2022-11-05T06:26:11.637Z,8.40
2022-11-05T06:28:13.503Z,9.63
2022-11-05T06:30:15.528Z,9.03
2022-11-05T06:32:17.553Z,9.20
2022-11-05T06:34:19.384Z,9.27
2022-11-05T06:36:21.310Z,9.00
2022-11-05T06:38:23.216Z,9.70
2022-11-05T06:40:24.968Z,9.87
2022-11-05T06:42:26.860Z,9.60
2022-11-05T06:44:28.774Z,10.23
2022-11-05T06:46:31.399Z,10.17
2022-11-05T06:48:33.262Z,9.93
2022-11-05T06:50:35.110Z,9.83
2022-11-05T06:52:40.898Z,9.63
2022-11-05T06:54:43.847Z,9.90
2022-11-05T06:56:45.594Z,9.43
2022-11-05T06:58:47.617Z,9.50
2022-11-05T07:00:50.487Z,9.03
2022-11-05T07:02:52.487Z,9.90
2022-11-05T07:04:54.248Z,8.77
2022-11-05T07:06:56.200Z,9.83
2022-11-05T07:09:00.772Z,10.13
2022-11-05T07:11:02.691Z,10.23
2022-11-05T07:13:08.010Z,9.80
2022-11-05T07:15:12.178Z,10.97
2022-11-05T07:17:13.957Z,11.30
2022-11-05T07:19:15.716Z,11.90
2022-11-05T07:21:19.392Z,11.37
2022-11-05T07:23:21.107Z,11.10
2022-11-05T07:25:22.855Z,11.43
2022-11-05T07:27:24.578Z,10.57
2022-11-05T07:29:26.271Z,10.87
2022-11-05T07:31:28.023Z,10.43
2022-11-05T07:33:35.245Z,11.77
2022-11-05T07:35:38.286Z,14.00
2022-11-05T07:37:48.135Z,14.40
2022-11-05T07:39:49.862Z,14.50
2022-11-05T07:41:55.233Z,12.40
2022-11-05T07:43:59.190Z,11.97
2022-11-05T07:46:01.011Z,12.30
2022-11-05T07:48:04.071Z,13.23
2022-11-05T07:50:08.923Z,13.13
2022-11-05T07:52:10.754Z,13.77
2022-11-05T07:54:12.558Z,14.27
2022-11-05T07:56:15.354Z,13.23
2022-11-05T07:58:17.249Z,12.40
2022-11-05T08:00:21.994Z,11.60
2022-11-05T08:02:23.995Z,12.23
2022-11-05T08:04:26.125Z,12.73
2022-11-05T08:06:27.905Z,12.40
2022-11-05T08:08:29.685Z,12.47
2022-11-05T08:10:31.640Z,13.10
2022-11-05T08:12:33.839Z,12.77
2022-11-05T08:14:35.615Z,12.57
2022-11-05T08:16:37.346Z,11.80
2022-11-05T08:18:39.340Z,12.17
2022-11-05T08:20:43.444Z,12.27
2022-11-05T08:22:46.215Z,12.13
2022-11-05T08:24:48.101Z,12.60
2022-11-05T08:26:51.043Z,12.03
2022-11-05T08:28:52.870Z,11.80
2022-11-05T08:30:56.823Z,11.33
2022-11-05T08:33:04.835Z,11.40
2022-11-05T08:35:06.959Z,11.43
2022-11-05T08:37:08.739Z,12.07
2022-11-05T08:39:15.827Z,12.87
2022-11-05T08:41:18.632Z,12.20
2022-11-05T08:43:20.699Z,11.50
2022-11-05T08:45:23.175Z,10.97
2022-11-05T08:47:25.696Z,11.13
2022-11-05T08:49:27.399Z,12.30
2022-11-05T08:51:29.119Z,12.77
2022-11-05T08:53:30.811Z,12.43
2022-11-05T08:55:32.912Z,11.57
2022-11-05T08:57:34.824Z,12.53
2022-11-05T08:59:36.740Z,12.70
2022-11-05T09:01:38.593Z,12.47
2022-11-05T09:03:40.570Z,12.50
2022-11-05T09:05:42.943Z,12.90
2022-11-05T09:07:44.990Z,12.87
2022-11-05T09:09:47.115Z,12.90
2022-11-05T09:12:11.046Z,12.23
2022-11-05T09:14:11.632Z,12.23
2022-11-05T09:16:24.969Z,12.97
2022-11-05T09:18:26.916Z,11.87
2022-11-05T09:20:29.656Z,11.53
2022-11-05T09:22:31.408Z,11.40
2022-11-05T09:24:33.314Z,11.60
2022-11-05T09:26:35.278Z,11.70
2022-11-05T09:28:38.891Z,11.37
2022-11-05T09:30:42.703Z,11.40
2022-11-05T09:32:44.484Z,11.50
2022-11-05T09:34:48.433Z,11.50
2022-11-05T09:36:50.248Z,12.03
2022-11-05T09:38:51.968Z,11.87
2022-11-05T09:41:10.611Z,11.47
2022-11-05T09:43:19.554Z,11.67
2022-11-05T09:45:24.740Z,11.47
2022-11-05T09:47:32.892Z,12.10
2022-11-05T09:49:41.167Z,12.43
2022-11-05T09:51:43.088Z,12.30
2022-11-05T09:53:45.757Z,12.27
2022-11-05T09:55:56.223Z,12.63
2022-11-05T09:58:01.356Z,11.33
2022-11-05T10:00:07.099Z,12.00
2022-11-05T10:02:17.503Z,12.27
2022-11-05T10:04:23.959Z,12.10
2022-11-05T10:06:27.433Z,13.13
2022-11-05T10:08:42.913Z,13.67
2022-11-05T10:10:46.466Z,14.77
2022-11-05T10:12:54.101Z,14.13
2022-11-05T10:15:17.262Z,13.73
2022-11-05T10:17:22.231Z,13.60
2022-11-05T10:19:27.341Z,12.87
2022-11-05T10:21:59.478Z,12.70
2022-11-05T10:23:52.180Z,13.07
2022-11-05T10:26:05.606Z,12.50
2022-11-05T10:28:10.849Z,12.97
2022-11-05T10:30:15.240Z,12.57
2022-11-05T10:32:34.653Z,13.13
2022-11-05T10:34:39.124Z,12.90
2022-11-05T10:36:41.093Z,12.33
2022-11-05T10:38:43.056Z,12.67
2022-11-05T10:41:09.889Z,12.10
2022-11-05T10:43:44.856Z,12.27
2022-11-05T10:45:59.708Z,12.67
2022-11-05T10:48:24.620Z,15.27
2022-11-05T10:50:29.889Z,16.17
2022-11-05T10:52:49.002Z,18.47
2022-11-05T10:54:54.920Z,16.90
2022-11-05T10:56:56.823Z,15.50
2022-11-05T10:59:00.100Z,14.30
2022-11-05T11:01:10.792Z,13.07
2022-11-05T11:03:31.059Z,13.57
2022-11-05T11:05:36.696Z,14.33
2022-11-05T11:07:38.582Z,15.47
2022-11-05T11:09:48.381Z,14.57
2022-11-05T11:12:26.108Z,13.10
2022-11-05T11:14:28.054Z,14.53
2022-11-05T11:16:36.389Z,13.37
2022-11-05T11:18:40.397Z,13.63
2022-11-05T11:20:46.629Z,13.83
2022-11-05T11:23:16.081Z,13.23
2022-11-05T11:25:25.128Z,13.60
2022-11-05T11:27:31.445Z,13.97
2022-11-05T11:29:39.507Z,13.90
2022-11-05T11:31:42.041Z,14.43
2022-11-05T11:33:50.887Z,14.57
2022-11-05T11:35:53.023Z,14.70
2022-11-05T11:37:57.017Z,14.60
2022-11-05T11:40:13.716Z,15.67
2022-11-05T11:42:36.235Z,26.87
2022-11-05T11:44:44.461Z,15.43
2022-11-05T11:46:52.182Z,13.47
2022-11-05T11:48:54.254Z,14.17
2022-11-05T11:50:57.702Z,17.10
2022-11-05T11:53:18.194Z,17.60
2022-11-05T11:55:22.276Z,18.93
2022-11-05T11:57:29.366Z,16.77
2022-11-05T12:00:06.466Z,15.67
2022-11-05T12:02:41.680Z,15.40
2022-11-05T12:05:06.124Z,15.60
2022-11-05T12:07:20.537Z,15.10
2022-11-05T12:09:54.430Z,14.83
2022-11-05T12:12:09.961Z,14.43
2022-11-05T12:14:29.915Z,14.33
2022-11-05T12:16:49.630Z,13.53
2022-11-05T12:19:24.077Z,12.23
2022-11-05T12:21:58.670Z,13.87
2022-11-05T12:24:37.414Z,14.47
2022-11-05T12:26:49.230Z,13.00
2022-11-05T12:29:19.584Z,13.50
2022-11-05T12:31:30.505Z,13.13
2022-11-05T12:33:53.870Z,13.93
2022-11-05T12:36:30.697Z,14.57
2022-11-05T12:39:13.029Z,14.07
2022-11-05T12:41:28.365Z,14.90
2022-11-05T12:43:50.012Z,14.40
2022-11-05T12:46:17.119Z,15.50
2022-11-05T12:48:35.834Z,16.20
2022-11-05T12:51:12.832Z,17.63
2022-11-05T12:53:23.749Z,15.80
2022-11-05T12:55:33.532Z,15.67
2022-11-05T12:57:40.152Z,18.60
2022-11-05T12:59:54.038Z,17.13
2022-11-05T13:02:04.184Z,16.60
2022-11-05T13:04:34.670Z,16.07
2022-11-05T13:06:44.293Z,15.30
2022-11-05T13:09:11.375Z,14.60
2022-11-05T13:11:25.972Z,18.77
2022-11-05T13:13:42.544Z,18.87
2022-11-05T13:16:13.237Z,17.63
2022-11-05T13:18:21.452Z,16.57
2022-11-05T13:20:28.817Z,17.10
2022-11-05T13:22:39.270Z,14.97
2022-11-05T13:24:49.682Z,13.23
2022-11-05T13:27:22.245Z,13.10
2022-11-05T13:29:34.334Z,12.63
2022-11-05T13:31:41.302Z,12.87
2022-11-05T13:33:45.519Z,12.37
2022-11-05T13:36:26.453Z,12.27
2022-11-05T13:38:46.597Z,11.97
2022-11-05T13:41:08.849Z,12.17
2022-11-05T13:43:30.255Z,11.60
2022-11-05T13:46:02.855Z,11.10
2022-11-05T13:48:34.972Z,11.27
2022-11-05T13:51:04.062Z,10.60
2022-11-05T13:53:32.333Z,10.80
2022-11-05T13:56:08.015Z,10.70
2022-11-05T13:58:24.914Z,10.83
2022-11-05T14:00:29.592Z,11.00
2022-11-05T14:02:59.722Z,10.27
2022-11-05T14:05:02.722Z,11.33
2022-11-05T14:07:23.502Z,10.60
2022-11-05T14:09:27.375Z,9.80
2022-11-05T14:11:42.096Z,10.07
2022-11-05T14:13:50.298Z,10.47
2022-11-05T14:16:29.606Z,13.47
2022-11-05T14:18:43.860Z,10.90
2022-11-05T14:21:00.844Z,9.73
2022-11-05T14:23:17.909Z,10.83
2022-11-05T14:25:19.742Z,9.90
2022-11-05T14:27:21.517Z,8.70
2022-11-05T14:29:39.240Z,8.17
2022-11-05T14:32:07.953Z,8.00
2022-11-05T14:34:08.828Z,7.90
2022-11-05T14:36:29.387Z,7.73
2022-11-05T14:38:31.285Z,7.83
2022-11-05T14:40:37.584Z,8.73
2022-11-05T14:42:39.378Z,7.57
2022-11-05T14:45:12.976Z,7.43
2022-11-05T14:47:21.757Z,8.23
2022-11-05T14:49:27.856Z,7.63
2022-11-05T14:51:44.123Z,7.97
2022-11-05T14:53:45.967Z,8.50
2022-11-05T14:56:02.473Z,8.67
2022-11-05T14:58:25.798Z,8.40
2022-11-05T15:00:31.135Z,9.47
2022-11-05T15:02:55.064Z,9.70
2022-11-05T15:05:33.180Z,8.80
2022-11-05T15:07:37.708Z,8.73
2022-11-05T15:10:04.288Z,8.57
2022-11-05T15:12:21.917Z,10.13
2022-11-05T15:14:48.020Z,9.67
2022-11-05T15:16:53.569Z,13.03
2022-11-05T15:18:56.750Z,10.20
2022-11-05T15:21:02.061Z,10.33
2022-11-05T15:23:06.956Z,9.77
2022-11-05T15:25:26.830Z,9.10
2022-11-05T15:27:31.361Z,8.93
2022-11-05T15:29:33.555Z,8.97
2022-11-05T15:31:41.066Z,10.30
2022-11-05T15:33:45.195Z,10.83
2022-11-05T15:35:47.465Z,9.93
2022-11-05T15:37:55.943Z,9.80
2022-11-05T15:40:00.874Z,11.60
2022-11-05T15:42:05.971Z,13.73
2022-11-05T15:44:27.422Z,13.53
2022-11-05T15:46:30.859Z,15.23
2022-11-05T15:48:33.876Z,13.30
2022-11-05T15:50:35.709Z,10.73
2022-11-05T15:52:49.263Z,10.87
2022-11-05T15:55:13.114Z,10.57
2022-11-05T15:57:39.873Z,10.37
2022-11-05T15:59:46.996Z,10.73
2022-11-05T16:01:56.667Z,10.93
2022-11-05T16:04:09.504Z,11.20
2022-11-05T16:06:11.720Z,10.43
2022-11-05T16:08:20.808Z,11.30
2022-11-05T16:10:28.527Z,11.27
2022-11-05T16:12:33.265Z,11.47
2022-11-05T16:14:35.349Z,10.13
2022-11-05T16:16:37.126Z,10.37
2022-11-05T16:18:39.279Z,10.97
2022-11-05T16:20:41.236Z,10.30
2022-11-05T16:22:49.091Z,10.10
2022-11-05T16:24:50.913Z,10.20
2022-11-05T16:27:03.784Z,9.83
2022-11-05T16:29:17.526Z,9.10
2022-11-05T16:31:27.473Z,9.70
2022-11-05T16:33:34.959Z,9.17
2022-11-05T16:35:45.863Z,10.33
2022-11-05T16:37:52.052Z,13.63
2022-11-05T16:39:54.986Z,14.13
2022-11-05T16:41:56.963Z,11.73
2022-11-05T16:43:59.974Z,11.67
2022-11-05T16:46:01.903Z,11.10
2022-11-05T16:48:03.839Z,10.37
2022-11-05T16:50:27.055Z,10.13
2022-11-05T16:52:29.045Z,10.30
2022-11-05T16:54:30.846Z,10.73
2022-11-05T16:56:33.473Z,10.30
2022-11-05T16:58:35.229Z,10.70
2022-11-05T17:00:37.004Z,10.70
2022-11-05T17:02:38.939Z,11.17
2022-11-05T17:04:41.101Z,12.00
2022-11-05T17:06:43.865Z,11.73
2022-11-05T17:08:47.025Z,12.37
2022-11-05T17:10:48.775Z,12.40
2022-11-05T17:12:51.291Z,11.90
2022-11-05T17:14:52.961Z,15.17
2022-11-05T17:16:55.041Z,10.90
2022-11-05T17:18:56.769Z,11.77
2022-11-05T17:20:58.597Z,10.20
2022-11-05T17:23:00.917Z,11.30
2022-11-05T17:25:02.677Z,10.93
2022-11-05T17:27:04.512Z,11.07
2022-11-05T17:29:06.339Z,10.03
2022-11-05T17:31:11.353Z,10.70
2022-11-05T17:33:13.503Z,10.90
2022-11-05T17:35:17.827Z,10.07
2022-11-05T17:37:19.709Z,10.20
2022-11-05T17:39:24.860Z,10.27
2022-11-05T17:41:29.313Z,10.97
2022-11-05T17:43:31.301Z,11.57
2022-11-05T17:45:33.502Z,10.97
2022-11-05T17:47:35.518Z,11.00
2022-11-05T17:49:37.563Z,10.30
2022-11-05T17:51:39.392Z,10.97
2022-11-05T17:53:42.664Z,10.17
2022-11-05T17:55:46.521Z,11.33
2022-11-05T17:57:50.446Z,10.43
2022-11-05T17:59:52.259Z,10.73
2022-11-05T18:01:54.445Z,10.53
2022-11-05T18:03:57.937Z,10.57
2022-11-05T18:06:06.254Z,9.73
2022-11-05T18:08:08.803Z,10.23
2022-11-05T18:10:10.677Z,10.27
2022-11-05T18:12:12.527Z,10.43
2022-11-05T18:14:14.279Z,10.03
2022-11-05T18:16:17.891Z,10.47
2022-11-05T18:18:19.836Z,9.77
2022-11-05T18:20:21.517Z,9.87
2022-11-05T18:22:23.414Z,9.83
2022-11-05T18:24:27.427Z,10.43
2022-11-05T18:26:29.253Z,9.67
2022-11-05T18:28:33.928Z,9.47
2022-11-05T18:30:38.952Z,10.00
2022-11-05T18:32:44.589Z,10.30
2022-11-05T18:34:46.515Z,9.40
2022-11-05T18:36:53.476Z,9.90
2022-11-05T18:38:59.700Z,10.27
2022-11-05T18:41:07.702Z,9.53
2022-11-05T18:43:09.942Z,8.83
2022-11-05T18:45:12.739Z,9.57
2022-11-05T18:47:14.817Z,9.57
2022-11-05T18:49:16.959Z,10.10
2022-11-05T18:51:18.906Z,9.40
2022-11-05T18:53:20.940Z,9.00
2022-11-05T18:55:23.154Z,9.97
2022-11-05T18:57:25.516Z,9.00
2022-11-05T18:59:37.790Z,9.87
2022-11-05T19:01:41.031Z,9.00
2022-11-05T19:03:43.034Z,8.77
2022-11-05T19:05:45.993Z,8.70
2022-11-05T19:07:47.845Z,8.67
2022-11-05T19:09:49.708Z,8.67
2022-11-05T19:11:54.719Z,8.27
2022-11-05T19:13:56.636Z,8.00
2022-11-05T19:15:59.784Z,8.47
2022-11-05T19:18:01.476Z,8.47
2022-11-05T19:20:06.234Z,9.77
2022-11-05T19:22:08.183Z,8.33
2022-11-05T19:24:10.303Z,8.87
2022-11-05T19:26:15.591Z,8.63
2022-11-05T19:28:17.312Z,9.00
2022-11-05T19:30:19.120Z,9.43
2022-11-05T19:32:21.227Z,8.23
2022-11-05T19:34:23.270Z,8.70
2022-11-05T19:36:25.681Z,9.00
2022-11-05T19:38:27.660Z,11.13
2022-11-05T19:40:29.433Z,8.83
2022-11-05T19:42:31.169Z,8.43
2022-11-05T19:44:33.034Z,9.50
2022-11-05T19:46:35.022Z,9.67
2022-11-05T19:48:37.456Z,9.43
2022-11-05T19:50:43.125Z,9.53
2022-11-05T19:52:45.313Z,9.80
2022-11-05T19:54:47.396Z,8.50
2022-11-05T19:56:51.707Z,8.40
2022-11-05T19:58:54.325Z,9.43
2022-11-05T20:00:56.152Z,8.70
2022-11-05T20:02:58.255Z,8.63
2022-11-05T20:05:00.232Z,8.63
2022-11-05T20:07:02.009Z,7.57
2022-11-05T20:09:22.926Z,7.87
2022-11-05T20:11:26.223Z,8.53
2022-11-05T20:13:29.045Z,8.00
2022-11-05T20:15:30.980Z,7.77
2022-11-05T20:17:33.017Z,7.63
2022-11-05T20:19:35.560Z,9.03
2022-11-05T20:21:37.682Z,9.80
2022-11-05T20:23:39.510Z,7.90
2022-11-05T20:25:42.326Z,7.83
2022-11-05T20:27:44.085Z,8.00
2022-11-05T20:29:45.877Z,7.37
2022-11-05T20:31:47.867Z,8.20
2022-11-05T20:33:49.761Z,7.50
2022-11-05T20:35:51.551Z,7.90
2022-11-05T20:37:54.309Z,7.93
2022-11-05T20:39:56.472Z,7.17
2022-11-05T20:42:00.784Z,6.83
2022-11-05T20:44:02.829Z,7.23
2022-11-05T20:46:05.238Z,7.00
2022-11-05T20:48:07.469Z,6.70
2022-11-05T20:50:09.938Z,7.23
2022-11-05T20:52:12.356Z,7.33
2022-11-05T20:54:14.236Z,6.83
2022-11-05T20:56:19.148Z,7.93
2022-11-05T20:58:21.698Z,7.17
2022-11-05T21:00:23.744Z,7.07
2022-11-05T21:02:25.728Z,7.93
2022-11-05T21:04:27.481Z,7.10
2022-11-05T21:06:32.202Z,6.70
2022-11-05T21:08:34.947Z,7.00
2022-11-05T21:10:37.039Z,7.60
2022-11-05T21:12:38.986Z,6.83
2022-11-05T21:14:43.391Z,6.50
2022-11-05T21:16:45.403Z,6.40
2022-11-05T21:18:48.079Z,6.73
2022-11-05T21:20:50.319Z,5.97
2022-11-05T21:22:54.492Z,7.50
2022-11-05T21:24:59.637Z,6.10
2022-11-05T21:27:05.252Z,7.97
2022-11-05T21:29:07.827Z,6.27
2022-11-05T21:31:10.753Z,6.47
2022-11-05T21:33:13.994Z,6.13
2022-11-05T21:35:15.907Z,5.87
2022-11-05T21:37:17.671Z,5.83
2022-11-05T21:39:20.773Z,5.47
2022-11-05T21:41:22.978Z,5.33
2022-11-05T21:43:25.165Z,5.70
2022-11-05T21:45:29.235Z,5.40
2022-11-05T21:47:31.374Z,5.50
2022-11-05T21:49:34.602Z,5.33
2022-11-05T21:51:54.792Z,5.93
2022-11-05T21:54:15.679Z,5.60
2022-11-05T21:56:39.451Z,5.10
2022-11-05T21:59:10.581Z,5.33
2022-11-05T22:01:12.417Z,5.83
2022-11-05T22:03:14.361Z,5.70
2022-11-05T22:05:16.247Z,5.50
2022-11-05T22:07:22.649Z,6.57
2022-11-05T22:09:25.240Z,6.17
2022-11-05T22:11:27.530Z,5.53
2022-11-05T22:13:29.202Z,6.10
2022-11-05T22:15:31.038Z,5.80
2022-11-05T22:17:33.033Z,5.43
2022-11-05T22:19:35.212Z,5.10
2022-11-05T22:21:37.181Z,5.70
2022-11-05T22:23:38.933Z,5.30
2022-11-05T22:25:40.977Z,5.47
2022-11-05T22:27:43.804Z,5.47
2022-11-05T22:29:46.273Z,5.10
2022-11-05T22:31:48.527Z,5.77
2022-11-05T22:33:50.445Z,5.07
2022-11-05T22:35:53.384Z,5.00
2022-11-05T22:37:55.288Z,4.63
2022-11-05T22:39:57.073Z,5.07
2022-11-05T22:42:03.027Z,5.17
2022-11-05T22:44:07.827Z,5.33
2022-11-05T22:46:15.568Z,5.13
2022-11-05T22:48:17.440Z,5.27
2022-11-05T22:50:19.924Z,4.93
2022-11-05T22:52:22.075Z,4.57
2022-11-05T22:54:23.868Z,5.00
2022-11-05T22:56:28.205Z,4.40
2022-11-05T22:58:30.077Z,5.03
2022-11-05T23:00:36.775Z,4.60
2022-11-05T23:02:38.859Z,4.90
2022-11-05T23:04:41.077Z,4.20
2022-11-05T23:07:01.610Z,4.43
2022-11-05T23:09:25.499Z,4.47
2022-11-05T23:11:38.585Z,4.50
2022-11-05T23:13:40.887Z,4.40
2022-11-05T23:16:02.632Z,4.47
2022-11-05T23:18:23.201Z,4.33
2022-11-05T23:20:43.755Z,4.40
2022-11-05T23:23:03.965Z,4.60
2022-11-05T23:25:08.893Z,4.63
2022-11-05T23:27:10.632Z,4.50
2022-11-05T23:29:12.364Z,4.50
2022-11-05T23:31:32.778Z,4.13
2022-11-05T23:33:35.184Z,4.80
2022-11-05T23:35:55.446Z,4.17
2022-11-05T23:38:15.849Z,4.17
2022-11-05T23:40:22.009Z,4.17
2022-11-05T23:42:42.351Z,4.03
2022-11-05T23:45:02.847Z,3.47
2022-11-05T23:47:23.297Z,4.07
2022-11-05T23:49:25.108Z,3.90
2022-11-05T23:51:26.910Z,4.60
2022-11-05T23:53:30.715Z,4.20
2022-11-05T23:55:32.476Z,3.93
2022-11-05T23:57:34.312Z,4.33
2022-11-05T23:59:36.188Z,4.20
